sensor_id;sensor_type;location;lat;lon;timestamp;pressure;altitude;pressure_sealevel;temperature
24201;BMP280;2801;50.972;7.856;2023-07-13T00:02:00;97552.03;;;17.54
24201;BMP280;2801;50.972;7.856;2023-07-13T00:04:28;97552.47;;;17.33
24201;BMP280;2801;50.972;7.856;2023-07-13T00:06:57;97554.78;;;17.09
24201;BMP280;2801;50.972;7.856;2023-07-13T00:09:24;97549.38;;;16.86
24201;BMP280;2801;50.972;7.856;2023-07-13T00:11:55;97548.28;;;16.68
24201;BMP280;2801;50.972;7.856;2023-07-13T00:14:24;97559.69;;;16.58
24201;BMP280;2801;50.972;7.856;2023-07-13T00:16:51;97547.41;;;16.42
24201;BMP280;2801;50.972;7.856;2023-07-13T00:19:19;97549.34;;;16.22
24201;BMP280;2801;50.972;7.856;2023-07-13T00:21:46;97551.75;;;16.08
24201;BMP280;2801;50.972;7.856;2023-07-13T00:24:17;97552.25;;;15.95
24201;BMP280;2801;50.972;7.856;2023-07-13T00:26:51;97550.81;;;15.82
24201;BMP280;2801;50.972;7.856;2023-07-13T00:29:18;97553.28;;;15.71
24201;BMP280;2801;50.972;7.856;2023-07-13T00:31:45;97551.16;;;15.61
24201;BMP280;2801;50.972;7.856;2023-07-13T00:34:13;97549.41;;;15.53
24201;BMP280;2801;50.972;7.856;2023-07-13T00:36:40;97551.53;;;15.44
24201;BMP280;2801;50.972;7.856;2023-07-13T00:39:07;97537.44;;;15.35
24201;BMP280;2801;50.972;7.856;2023-07-13T00:41:34;97540.34;;;15.30
24201;BMP280;2801;50.972;7.856;2023-07-13T00:44:01;97537.88;;;15.22
24201;BMP280;2801;50.972;7.856;2023-07-13T00:46:33;97538.03;;;15.13
24201;BMP280;2801;50.972;7.856;2023-07-13T00:49:11;97535.44;;;15.01
24201;BMP280;2801;50.972;7.856;2023-07-13T00:51:56;97542.03;;;14.88
24201;BMP280;2801;50.972;7.856;2023-07-13T00:54:35;97538.75;;;14.79
24201;BMP280;2801;50.972;7.856;2023-07-13T00:57:08;97543.88;;;14.68
24201;BMP280;2801;50.972;7.856;2023-07-13T00:59:38;97536.63;;;14.57
24201;BMP280;2801;50.972;7.856;2023-07-13T01:02:07;97548.38;;;14.49
24201;BMP280;2801;50.972;7.856;2023-07-13T01:04:34;97546.44;;;14.34
24201;BMP280;2801;50.972;7.856;2023-07-13T01:07:01;97543.47;;;14.23
24201;BMP280;2801;50.972;7.856;2023-07-13T01:09:28;97542.34;;;14.12
24201;BMP280;2801;50.972;7.856;2023-07-13T01:11:55;97551.00;;;14.06
24201;BMP280;2801;50.972;7.856;2023-07-13T01:14:22;97541.16;;;13.98
24201;BMP280;2801;50.972;7.856;2023-07-13T01:16:49;97543.56;;;13.87
24201;BMP280;2801;50.972;7.856;2023-07-13T01:19:36;97553.34;;;13.80
24201;BMP280;2801;50.972;7.856;2023-07-13T01:22:14;97545.41;;;13.71
24201;BMP280;2801;50.972;7.856;2023-07-13T01:24:44;97556.19;;;13.71
24201;BMP280;2801;50.972;7.856;2023-07-13T01:27:24;97541.94;;;13.59
24201;BMP280;2801;50.972;7.856;2023-07-13T01:29:53;97555.41;;;13.59
24201;BMP280;2801;50.972;7.856;2023-07-13T01:32:24;97560.00;;;13.58
24201;BMP280;2801;50.972;7.856;2023-07-13T01:34:53;97556.75;;;13.53
24201;BMP280;2801;50.972;7.856;2023-07-13T01:37:26;97551.94;;;13.46
24201;BMP280;2801;50.972;7.856;2023-07-13T01:39:53;97555.78;;;13.45
24201;BMP280;2801;50.972;7.856;2023-07-13T01:42:20;97557.69;;;13.45
24201;BMP280;2801;50.972;7.856;2023-07-13T01:44:47;97554.22;;;13.44
24201;BMP280;2801;50.972;7.856;2023-07-13T01:47:14;97545.69;;;13.42
24201;BMP280;2801;50.972;7.856;2023-07-13T01:49:41;97546.47;;;13.43
24201;BMP280;2801;50.972;7.856;2023-07-13T01:52:08;97551.41;;;13.41
24201;BMP280;2801;50.972;7.856;2023-07-13T01:54:35;97538.84;;;13.33
24201;BMP280;2801;50.972;7.856;2023-07-13T01:57:02;97546.91;;;13.33
24201;BMP280;2801;50.972;7.856;2023-07-13T01:59:30;97543.34;;;13.29
24201;BMP280;2801;50.972;7.856;2023-07-13T02:01:57;97556.13;;;13.32
24201;BMP280;2801;50.972;7.856;2023-07-13T02:04:24;97547.94;;;13.28
24201;BMP280;2801;50.972;7.856;2023-07-13T02:06:51;97555.66;;;13.30
24201;BMP280;2801;50.972;7.856;2023-07-13T02:09:18;97545.25;;;13.28
24201;BMP280;2801;50.972;7.856;2023-07-13T02:11:45;97545.56;;;13.27
24201;BMP280;2801;50.972;7.856;2023-07-13T02:14:12;97540.88;;;13.24
24201;BMP280;2801;50.972;7.856;2023-07-13T02:16:39;97554.78;;;13.26
24201;BMP280;2801;50.972;7.856;2023-07-13T02:19:06;97544.25;;;13.21
24201;BMP280;2801;50.972;7.856;2023-07-13T02:21:33;97548.19;;;13.11
24201;BMP280;2801;50.972;7.856;2023-07-13T02:24:00;97553.09;;;13.09
24201;BMP280;2801;50.972;7.856;2023-07-13T02:26:28;97544.03;;;13.02
24201;BMP280;2801;50.972;7.856;2023-07-13T02:28:55;97537.91;;;12.93
24201;BMP280;2801;50.972;7.856;2023-07-13T02:31:21;97546.88;;;12.85
24201;BMP280;2801;50.972;7.856;2023-07-13T02:33:48;97550.59;;;12.80
24201;BMP280;2801;50.972;7.856;2023-07-13T02:36:15;97558.88;;;12.75
24201;BMP280;2801;50.972;7.856;2023-07-13T02:38:43;97551.03;;;12.70
24201;BMP280;2801;50.972;7.856;2023-07-13T02:41:10;97556.72;;;12.69
24201;BMP280;2801;50.972;7.856;2023-07-13T02:43:38;97554.03;;;12.69
24201;BMP280;2801;50.972;7.856;2023-07-13T02:46:05;97543.03;;;12.62
24201;BMP280;2801;50.972;7.856;2023-07-13T02:48:37;97546.88;;;12.61
24201;BMP280;2801;50.972;7.856;2023-07-13T02:51:05;97550.34;;;12.61
24201;BMP280;2801;50.972;7.856;2023-07-13T02:53:32;97540.25;;;12.58
24201;BMP280;2801;50.972;7.856;2023-07-13T02:55:59;97553.38;;;12.60
24201;BMP280;2801;50.972;7.856;2023-07-13T02:58:26;97551.34;;;12.57
24201;BMP280;2801;50.972;7.856;2023-07-13T03:00:55;97529.81;;;12.45
24201;BMP280;2801;50.972;7.856;2023-07-13T03:03:22;97550.53;;;12.56
24201;BMP280;2801;50.972;7.856;2023-07-13T03:05:59;97538.78;;;12.49
24201;BMP280;2801;50.972;7.856;2023-07-13T03:08:26;97555.34;;;12.51
24201;BMP280;2801;50.972;7.856;2023-07-13T03:11:08;97559.38;;;12.45
24201;BMP280;2801;50.972;7.856;2023-07-13T03:13:39;97555.00;;;12.40
24201;BMP280;2801;50.972;7.856;2023-07-13T03:16:07;97566.53;;;12.41
24201;BMP280;2801;50.972;7.856;2023-07-13T03:18:36;97566.53;;;12.41
24201;BMP280;2801;50.972;7.856;2023-07-13T03:21:04;97569.88;;;12.38
24201;BMP280;2801;50.972;7.856;2023-07-13T03:23:31;97566.72;;;12.36
24201;BMP280;2801;50.972;7.856;2023-07-13T03:26:13;97579.25;;;12.32
24201;BMP280;2801;50.972;7.856;2023-07-13T03:28:41;97581.63;;;12.33
24201;BMP280;2801;50.972;7.856;2023-07-13T03:31:13;97579.16;;;12.28
24201;BMP280;2801;50.972;7.856;2023-07-13T03:33:41;97584.72;;;12.23
24201;BMP280;2801;50.972;7.856;2023-07-13T03:36:14;97583.47;;;12.21
24201;BMP280;2801;50.972;7.856;2023-07-13T03:38:41;97578.78;;;12.18
24201;BMP280;2801;50.972;7.856;2023-07-13T03:41:08;97581.00;;;12.16
24201;BMP280;2801;50.972;7.856;2023-07-13T03:43:35;97592.00;;;12.23
24201;BMP280;2801;50.972;7.856;2023-07-13T03:46:02;97591.69;;;12.24
24201;BMP280;2801;50.972;7.856;2023-07-13T03:48:29;97590.66;;;12.29
24201;BMP280;2801;50.972;7.856;2023-07-13T03:50:55;97590.16;;;12.35
24201;BMP280;2801;50.972;7.856;2023-07-13T03:53:22;97580.97;;;12.36
24201;BMP280;2801;50.972;7.856;2023-07-13T03:55:49;97595.31;;;12.40
24201;BMP280;2801;50.972;7.856;2023-07-13T03:58:28;97595.00;;;12.42
24201;BMP280;2801;50.972;7.856;2023-07-13T04:00:57;97593.53;;;12.44
24201;BMP280;2801;50.972;7.856;2023-07-13T04:03:25;97602.28;;;12.53
24201;BMP280;2801;50.972;7.856;2023-07-13T04:06:02;97594.81;;;12.59
24201;BMP280;2801;50.972;7.856;2023-07-13T04:08:34;97594.06;;;12.70
24201;BMP280;2801;50.972;7.856;2023-07-13T04:11:04;97596.44;;;12.84
24201;BMP280;2801;50.972;7.856;2023-07-13T04:13:31;97587.25;;;12.97
24201;BMP280;2801;50.972;7.856;2023-07-13T04:15:58;97593.38;;;13.06
24201;BMP280;2801;50.972;7.856;2023-07-13T04:18:25;97595.25;;;13.17
24201;BMP280;2801;50.972;7.856;2023-07-13T04:20:52;97598.19;;;13.24
24201;BMP280;2801;50.972;7.856;2023-07-13T04:23:19;97599.88;;;13.29
24201;BMP280;2801;50.972;7.856;2023-07-13T04:25:48;97596.94;;;13.34
24201;BMP280;2801;50.972;7.856;2023-07-13T04:28:16;97598.97;;;13.37
24201;BMP280;2801;50.972;7.856;2023-07-13T04:30:44;97598.31;;;13.40
24201;BMP280;2801;50.972;7.856;2023-07-13T04:33:11;97600.34;;;13.43
24201;BMP280;2801;50.972;7.856;2023-07-13T04:35:39;97598.19;;;13.48
24201;BMP280;2801;50.972;7.856;2023-07-13T04:38:05;97601.53;;;13.57
24201;BMP280;2801;50.972;7.856;2023-07-13T04:40:33;97597.94;;;13.65
24201;BMP280;2801;50.972;7.856;2023-07-13T04:43:00;97596.25;;;13.73
24201;BMP280;2801;50.972;7.856;2023-07-13T04:45:27;97582.44;;;13.74
24201;BMP280;2801;50.972;7.856;2023-07-13T04:47:54;97599.22;;;13.95
24201;BMP280;2801;50.972;7.856;2023-07-13T04:50:21;97599.09;;;14.04
24201;BMP280;2801;50.972;7.856;2023-07-13T04:52:53;97606.72;;;14.14
24201;BMP280;2801;50.972;7.856;2023-07-13T04:55:20;97603.53;;;14.24
24201;BMP280;2801;50.972;7.856;2023-07-13T04:57:47;97603.06;;;14.34
24201;BMP280;2801;50.972;7.856;2023-07-13T05:00:15;97604.50;;;14.43
24201;BMP280;2801;50.972;7.856;2023-07-13T05:02:45;97612.53;;;14.55
24201;BMP280;2801;50.972;7.856;2023-07-13T05:05:14;97611.25;;;14.65
24201;BMP280;2801;50.972;7.856;2023-07-13T05:07:41;97598.13;;;14.79
24201;BMP280;2801;50.972;7.856;2023-07-13T05:10:09;97614.00;;;15.27
24201;BMP280;2801;50.972;7.856;2023-07-13T05:12:36;97605.84;;;15.74
24201;BMP280;2801;50.972;7.856;2023-07-13T05:15:04;97607.34;;;16.25
24201;BMP280;2801;50.972;7.856;2023-07-13T05:17:31;97607.91;;;16.72
24201;BMP280;2801;50.972;7.856;2023-07-13T05:19:58;97606.84;;;17.21
24201;BMP280;2801;50.972;7.856;2023-07-13T05:22:26;97599.72;;;17.58
24201;BMP280;2801;50.972;7.856;2023-07-13T05:24:53;97603.00;;;17.97
24201;BMP280;2801;50.972;7.856;2023-07-13T05:27:19;97602.09;;;18.15
24201;BMP280;2801;50.972;7.856;2023-07-13T05:29:46;97601.09;;;18.27
24201;BMP280;2801;50.972;7.856;2023-07-13T05:32:13;97605.56;;;18.42
24201;BMP280;2801;50.972;7.856;2023-07-13T05:34:40;97601.41;;;18.52
24201;BMP280;2801;50.972;7.856;2023-07-13T05:37:08;97600.41;;;18.67
24201;BMP280;2801;50.972;7.856;2023-07-13T05:39:35;97602.50;;;18.84
24201;BMP280;2801;50.972;7.856;2023-07-13T05:42:03;97597.63;;;19.00
24201;BMP280;2801;50.972;7.856;2023-07-13T05:44:30;97606.72;;;19.18
24201;BMP280;2801;50.972;7.856;2023-07-13T05:46:57;97602.50;;;19.24
24201;BMP280;2801;50.972;7.856;2023-07-13T05:49:24;97610.03;;;19.37
24201;BMP280;2801;50.972;7.856;2023-07-13T05:51:51;97609.34;;;19.47
24201;BMP280;2801;50.972;7.856;2023-07-13T05:54:18;97607.00;;;19.46
24201;BMP280;2801;50.972;7.856;2023-07-13T05:56:45;97606.59;;;19.44
24201;BMP280;2801;50.972;7.856;2023-07-13T05:59:12;97595.72;;;19.44
24201;BMP280;2801;50.972;7.856;2023-07-13T06:01:39;97602.31;;;19.43
24201;BMP280;2801;50.972;7.856;2023-07-13T06:04:06;97599.97;;;19.41
24201;BMP280;2801;50.972;7.856;2023-07-13T06:06:33;97613.69;;;19.55
24201;BMP280;2801;50.972;7.856;2023-07-13T06:09:00;97618.03;;;19.67
24201;BMP280;2801;50.972;7.856;2023-07-13T06:11:27;97611.91;;;19.80
24201;BMP280;2801;50.972;7.856;2023-07-13T06:13:56;97618.19;;;19.88
24201;BMP280;2801;50.972;7.856;2023-07-13T06:16:23;97611.88;;;19.77
24201;BMP280;2801;50.972;7.856;2023-07-13T06:18:50;97614.59;;;19.77
24201;BMP280;2801;50.972;7.856;2023-07-13T06:21:22;97620.47;;;19.82
24201;BMP280;2801;50.972;7.856;2023-07-13T06:23:51;97617.81;;;19.93
24201;BMP280;2801;50.972;7.856;2023-07-13T06:26:21;97619.03;;;20.02
24201;BMP280;2801;50.972;7.856;2023-07-13T06:28:48;97627.53;;;19.94
24201;BMP280;2801;50.972;7.856;2023-07-13T06:31:15;97629.09;;;19.95
24201;BMP280;2801;50.972;7.856;2023-07-13T06:33:44;97625.59;;;19.98
24201;BMP280;2801;50.972;7.856;2023-07-13T06:36:11;97631.31;;;19.79
24201;BMP280;2801;50.972;7.856;2023-07-13T06:38:38;97625.06;;;19.75
24201;BMP280;2801;50.972;7.856;2023-07-13T06:41:07;97623.88;;;19.69
24201;BMP280;2801;50.972;7.856;2023-07-13T06:43:35;97626.59;;;19.72
24201;BMP280;2801;50.972;7.856;2023-07-13T06:46:02;97627.84;;;19.82
24201;BMP280;2801;50.972;7.856;2023-07-13T06:48:30;97629.78;;;19.81
24201;BMP280;2801;50.972;7.856;2023-07-13T06:50:57;97629.69;;;19.71
24201;BMP280;2801;50.972;7.856;2023-07-13T06:53:24;97638.66;;;19.71
24201;BMP280;2801;50.972;7.856;2023-07-13T06:55:51;97625.75;;;19.58
24201;BMP280;2801;50.972;7.856;2023-07-13T06:58:19;97628.44;;;19.58
24201;BMP280;2801;50.972;7.856;2023-07-13T07:00:50;97627.22;;;19.48
24201;BMP280;2801;50.972;7.856;2023-07-13T07:03:17;97633.84;;;19.54
24201;BMP280;2801;50.972;7.856;2023-07-13T07:05:45;97628.81;;;19.56
24201;BMP280;2801;50.972;7.856;2023-07-13T07:08:12;97625.38;;;19.59
24201;BMP280;2801;50.972;7.856;2023-07-13T07:10:40;97629.69;;;19.71
24201;BMP280;2801;50.972;7.856;2023-07-13T07:13:07;97632.16;;;19.90
24201;BMP280;2801;50.972;7.856;2023-07-13T07:15:35;97634.56;;;19.98
24201;BMP280;2801;50.972;7.856;2023-07-13T07:18:02;97633.81;;;20.05
24201;BMP280;2801;50.972;7.856;2023-07-13T07:20:30;97644.00;;;20.11
24201;BMP280;2801;50.972;7.856;2023-07-13T07:22:57;97629.66;;;20.18
24201;BMP280;2801;50.972;7.856;2023-07-13T07:25:24;97632.38;;;20.18
24201;BMP280;2801;50.972;7.856;2023-07-13T07:27:51;97639.03;;;20.27
24201;BMP280;2801;50.972;7.856;2023-07-13T07:30:21;97634.88;;;20.51
24201;BMP280;2801;50.972;7.856;2023-07-13T07:32:51;97643.47;;;20.60
24201;BMP280;2801;50.972;7.856;2023-07-13T07:35:23;97635.31;;;20.67
24201;BMP280;2801;50.972;7.856;2023-07-13T07:37:50;97646.94;;;20.57
24201;BMP280;2801;50.972;7.856;2023-07-13T07:40:18;97645.03;;;20.64
24201;BMP280;2801;50.972;7.856;2023-07-13T07:42:48;97641.28;;;20.97
24201;BMP280;2801;50.972;7.856;2023-07-13T07:45:15;97633.13;;;21.18
24201;BMP280;2801;50.972;7.856;2023-07-13T07:47:42;97639.00;;;21.27
24201;BMP280;2801;50.972;7.856;2023-07-13T07:50:10;97637.41;;;21.22
24201;BMP280;2801;50.972;7.856;2023-07-13T07:52:37;97637.00;;;21.20
24201;BMP280;2801;50.972;7.856;2023-07-13T07:55:06;97638.59;;;21.28
24201;BMP280;2801;50.972;7.856;2023-07-13T07:57:36;97640.53;;;21.38
24201;BMP280;2801;50.972;7.856;2023-07-13T08:00:07;97635.88;;;21.53
24201;BMP280;2801;50.972;7.856;2023-07-13T08:02:37;97641.34;;;21.57
24201;BMP280;2801;50.972;7.856;2023-07-13T08:05:08;97648.34;;;21.61
24201;BMP280;2801;50.972;7.856;2023-07-13T08:07:39;97641.34;;;21.71
24201;BMP280;2801;50.972;7.856;2023-07-13T08:10:07;97638.25;;;21.79
24201;BMP280;2801;50.972;7.856;2023-07-13T08:12:39;97630.78;;;21.90
24201;BMP280;2801;50.972;7.856;2023-07-13T08:15:14;97641.31;;;21.92
24201;BMP280;2801;50.972;7.856;2023-07-13T08:17:41;97645.22;;;21.94
24201;BMP280;2801;50.972;7.856;2023-07-13T08:20:09;97644.06;;;21.92
24201;BMP280;2801;50.972;7.856;2023-07-13T08:22:36;97640.97;;;21.90
24201;BMP280;2801;50.972;7.856;2023-07-13T08:25:03;97639.00;;;21.80
24201;BMP280;2801;50.972;7.856;2023-07-13T08:27:30;97642.13;;;21.85
24201;BMP280;2801;50.972;7.856;2023-07-13T08:29:57;97649.53;;;21.88
24201;BMP280;2801;50.972;7.856;2023-07-13T08:32:24;97642.88;;;21.96
24201;BMP280;2801;50.972;7.856;2023-07-13T08:34:52;97636.66;;;21.78
24201;BMP280;2801;50.972;7.856;2023-07-13T08:37:19;97641.34;;;21.74
24201;BMP280;2801;50.972;7.856;2023-07-13T08:39:46;97641.75;;;21.76
24201;BMP280;2801;50.972;7.856;2023-07-13T08:54:30;97649.53;;;21.53
24201;BMP280;2801;50.972;7.856;2023-07-13T08:57:08;97648.34;;;21.58
24201;BMP280;2801;50.972;7.856;2023-07-13T08:59:59;97641.72;;;21.55
24201;BMP280;2801;50.972;7.856;2023-07-13T09:02:41;97642.09;;;21.53
24201;BMP280;2801;50.972;7.856;2023-07-13T09:05:38;97648.72;;;21.63
24201;BMP280;2801;50.972;7.856;2023-07-13T09:08:56;97645.63;;;21.93
24201;BMP280;2801;50.972;7.856;2023-07-13T09:14:42;97652.25;;;21.88
24201;BMP280;2801;50.972;7.856;2023-07-13T09:17:48;97642.13;;;21.78
24201;BMP280;2801;50.972;7.856;2023-07-13T09:22:56;97640.56;;;21.84
24201;BMP280;2801;50.972;7.856;2023-07-13T09:25:34;97638.22;;;21.83
24201;BMP280;2801;50.972;7.856;2023-07-13T09:28:22;97638.22;;;21.97
24201;BMP280;2801;50.972;7.856;2023-07-13T09:31:14;97644.78;;;22.17
24201;BMP280;2801;50.972;7.856;2023-07-13T09:33:42;97643.63;;;22.28
24201;BMP280;2801;50.972;7.856;2023-07-13T09:36:23;97648.25;;;22.38
24201;BMP280;2801;50.972;7.856;2023-07-13T09:39:05;97654.53;;;22.28
24201;BMP280;2801;50.972;7.856;2023-07-13T09:42:06;97652.97;;;22.31
24201;BMP280;2801;50.972;7.856;2023-07-13T09:44:38;97654.06;;;22.58
24201;BMP280;2801;50.972;7.856;2023-07-13T09:47:32;97650.47;;;22.78
24201;BMP280;2801;50.972;7.856;2023-07-13T09:50:03;97651.94;;;22.93
24201;BMP280;2801;50.972;7.856;2023-07-13T09:52:49;97649.53;;;23.02
24201;BMP280;2801;50.972;7.856;2023-07-13T09:55:32;97657.34;;;23.04
24201;BMP280;2801;50.972;7.856;2023-07-13T09:58:17;97657.00;;;22.98
24201;BMP280;2801;50.972;7.856;2023-07-13T10:01:02;97657.75;;;23.02
24201;BMP280;2801;50.972;7.856;2023-07-13T10:03:36;97653.47;;;22.98
24201;BMP280;2801;50.972;7.856;2023-07-13T10:06:18;97663.63;;;23.01
24201;BMP280;2801;50.972;7.856;2023-07-13T10:08:46;97664.00;;;23.03
24201;BMP280;2801;50.972;7.856;2023-07-13T10:11:27;97651.44;;;23.09
24201;BMP280;2801;50.972;7.856;2023-07-13T10:14:07;97652.31;;;22.95
24201;BMP280;2801;50.972;7.856;2023-07-13T10:16:41;97657.38;;;23.00
24201;BMP280;2801;50.972;7.856;2023-07-13T10:19:22;97654.66;;;22.97
24201;BMP280;2801;50.972;7.856;2023-07-13T10:21:57;97664.84;;;22.96
24201;BMP280;2801;50.972;7.856;2023-07-13T10:24:32;97665.22;;;22.91
24201;BMP280;2801;50.972;7.856;2023-07-13T10:27:10;97662.03;;;23.03
24201;BMP280;2801;50.972;7.856;2023-07-13T10:32:24;97649.28;;;23.44
24201;BMP280;2801;50.972;7.856;2023-07-13T10:34:53;97657.75;;;23.64
24201;BMP280;2801;50.972;7.856;2023-07-13T10:37:27;97648.28;;;23.75
24201;BMP280;2801;50.972;7.856;2023-07-13T10:39:57;97660.69;;;23.87
24201;BMP280;2801;50.972;7.856;2023-07-13T10:42:36;97653.56;;;24.00
24201;BMP280;2801;50.972;7.856;2023-07-13T10:45:18;97654.31;;;24.04
24201;BMP280;2801;50.972;7.856;2023-07-13T10:47:47;97657.50;;;23.95
24201;BMP280;2801;50.972;7.856;2023-07-13T10:50:22;97664.19;;;23.94
24201;BMP280;2801;50.972;7.856;2023-07-13T10:52:53;97663.31;;;24.01
24201;BMP280;2801;50.972;7.856;2023-07-13T10:58:37;97665.00;;;24.28
24201;BMP280;2801;50.972;7.856;2023-07-13T11:01:12;97666.09;;;24.38
24201;BMP280;2801;50.972;7.856;2023-07-13T11:03:48;97668.81;;;24.38
24201;BMP280;2801;50.972;7.856;2023-07-13T11:08:53;97671.31;;;24.22
24201;BMP280;2801;50.972;7.856;2023-07-13T11:16:47;97671.41;;;24.15
24201;BMP280;2801;50.972;7.856;2023-07-13T11:25:00;97671.22;;;23.92
24201;BMP280;2801;50.972;7.856;2023-07-13T11:27:39;97667.00;;;23.77
24201;BMP280;2801;50.972;7.856;2023-07-13T11:36:29;97681.94;;;23.69
24201;BMP280;2801;50.972;7.856;2023-07-13T11:39:04;97669.50;;;23.64
24201;BMP280;2801;50.972;7.856;2023-07-13T11:41:45;97677.00;;;23.53
24201;BMP280;2801;50.972;7.856;2023-07-13T11:44:20;97680.53;;;23.47
24201;BMP280;2801;50.972;7.856;2023-07-13T11:46:53;97671.94;;;23.48
24201;BMP280;2801;50.972;7.856;2023-07-13T11:49:25;97684.22;;;23.19
24201;BMP280;2801;50.972;7.856;2023-07-13T11:51:54;97684.28;;;23.12
24201;BMP280;2801;50.972;7.856;2023-07-13T11:56:55;97685.47;;;23.11
24201;BMP280;2801;50.972;7.856;2023-07-13T11:59:24;97689.69;;;23.19
24201;BMP280;2801;50.972;7.856;2023-07-13T12:01:54;97684.63;;;23.14
24201;BMP280;2801;50.972;7.856;2023-07-13T12:04:33;97688.16;;;23.15
24201;BMP280;2801;50.972;7.856;2023-07-13T12:07:11;97693.59;;;23.18
24201;BMP280;2801;50.972;7.856;2023-07-13T12:09:41;97689.31;;;23.24
24201;BMP280;2801;50.972;7.856;2023-07-13T12:12:35;97688.63;;;23.03
24201;BMP280;2801;50.972;7.856;2023-07-13T12:15:07;97681.50;;;23.16
24201;BMP280;2801;50.972;7.856;2023-07-13T12:17:35;97679.13;;;23.28
24201;BMP280;2801;50.972;7.856;2023-07-13T12:20:21;97669.94;;;23.56
24201;BMP280;2801;50.972;7.856;2023-07-13T12:22:51;97674.06;;;23.78
24201;BMP280;2801;50.972;7.856;2023-07-13T12:25:19;97670.06;;;23.93
24201;BMP280;2801;50.972;7.856;2023-07-13T12:27:51;97669.59;;;23.98
24201;BMP280;2801;50.972;7.856;2023-07-13T12:30:31;97669.50;;;24.08
24201;BMP280;2801;50.972;7.856;2023-07-13T12:33:08;97669.47;;;24.12
24201;BMP280;2801;50.972;7.856;2023-07-13T12:35:56;97677.69;;;24.12
24201;BMP280;2801;50.972;7.856;2023-07-13T12:38:26;97677.34;;;24.06
24201;BMP280;2801;50.972;7.856;2023-07-13T12:40:54;97683.63;;;24.03
24201;BMP280;2801;50.972;7.856;2023-07-13T12:43:23;97689.19;;;23.96
24201;BMP280;2801;50.972;7.856;2023-07-13T12:46:02;97687.22;;;23.97
24201;BMP280;2801;50.972;7.856;2023-07-13T12:48:38;97702.91;;;23.89
24201;BMP280;2801;50.972;7.856;2023-07-13T12:51:17;97698.59;;;23.88
24201;BMP280;2801;50.972;7.856;2023-07-13T12:53:57;97696.03;;;23.67
24201;BMP280;2801;50.972;7.856;2023-07-13T12:56:28;97702.34;;;23.64
24201;BMP280;2801;50.972;7.856;2023-07-13T12:59:04;97695.31;;;23.60
24201;BMP280;2801;50.972;7.856;2023-07-13T13:01:35;97698.34;;;23.72
24201;BMP280;2801;50.972;7.856;2023-07-13T13:04:04;97696.38;;;23.73
24201;BMP280;2801;50.972;7.856;2023-07-13T13:06:36;97696.78;;;23.75
24201;BMP280;2801;50.972;7.856;2023-07-13T13:09:11;97702.59;;;23.77
24201;BMP280;2801;50.972;7.856;2023-07-13T13:11:38;97701.75;;;23.90
24201;BMP280;2801;50.972;7.856;2023-07-13T13:14:07;97709.94;;;23.94
24201;BMP280;2801;50.972;7.856;2023-07-13T13:16:49;97695.88;;;23.88
24201;BMP280;2801;50.972;7.856;2023-07-13T13:19:24;97707.97;;;23.91
24201;BMP280;2801;50.972;7.856;2023-07-13T13:21:55;97695.91;;;23.85
24201;BMP280;2801;50.972;7.856;2023-07-13T13:24:26;97702.13;;;23.92
24201;BMP280;2801;50.972;7.856;2023-07-13T13:26:55;97700.94;;;23.93
24201;BMP280;2801;50.972;7.856;2023-07-13T13:29:25;97703.44;;;24.18
24201;BMP280;2801;50.972;7.856;2023-07-13T13:31:54;97701.78;;;24.31
24201;BMP280;2801;50.972;7.856;2023-07-13T13:34:23;97702.38;;;24.45
24201;BMP280;2801;50.972;7.856;2023-07-13T13:36:52;97697.28;;;24.47
24201;BMP280;2801;50.972;7.856;2023-07-13T13:39:31;97688.22;;;24.54
24201;BMP280;2801;50.972;7.856;2023-07-13T13:41:58;97696.34;;;24.61
24201;BMP280;2801;50.972;7.856;2023-07-13T13:44:25;97693.50;;;24.72
24201;BMP280;2801;50.972;7.856;2023-07-13T13:46:54;97695.16;;;24.65
24201;BMP280;2801;50.972;7.856;2023-07-13T13:49:27;97697.47;;;24.67
24201;BMP280;2801;50.972;7.856;2023-07-13T13:51:55;97698.47;;;24.46
24201;BMP280;2801;50.972;7.856;2023-07-13T13:54:24;97697.81;;;24.35
24201;BMP280;2801;50.972;7.856;2023-07-13T13:56:53;97698.97;;;24.34
24201;BMP280;2801;50.972;7.856;2023-07-13T13:59:20;97700.91;;;24.37
24201;BMP280;2801;50.972;7.856;2023-07-13T14:01:48;97686.53;;;24.30
24201;BMP280;2801;50.972;7.856;2023-07-13T14:04:21;97700.38;;;24.49
24201;BMP280;2801;50.972;7.856;2023-07-13T14:06:49;97703.06;;;24.56
24201;BMP280;2801;50.972;7.856;2023-07-13T14:09:19;97708.44;;;24.67
24201;BMP280;2801;50.972;7.856;2023-07-13T14:11:49;97707.47;;;24.84
24201;BMP280;2801;50.972;7.856;2023-07-13T14:14:23;97705.59;;;24.78
24201;BMP280;2801;50.972;7.856;2023-07-13T14:16:52;97692.03;;;24.63
24201;BMP280;2801;50.972;7.856;2023-07-13T14:19:23;97707.47;;;24.84
24201;BMP280;2801;50.972;7.856;2023-07-13T14:21:51;97686.66;;;24.87
24201;BMP280;2801;50.972;7.856;2023-07-13T14:24:20;97686.53;;;24.97
24201;BMP280;2801;50.972;7.856;2023-07-13T14:26:48;97699.41;;;25.04
24201;BMP280;2801;50.972;7.856;2023-07-13T14:29:18;97689.16;;;25.08
24201;BMP280;2801;50.972;7.856;2023-07-13T14:31:50;97691.59;;;25.32
24201;BMP280;2801;50.972;7.856;2023-07-13T14:34:18;97692.38;;;25.56
24201;BMP280;2801;50.972;7.856;2023-07-13T14:36:47;97682.88;;;25.64
24201;BMP280;2801;50.972;7.856;2023-07-13T14:39:21;97681.56;;;25.72
24201;BMP280;2801;50.972;7.856;2023-07-13T14:41:54;97691.69;;;25.75
24201;BMP280;2801;50.972;7.856;2023-07-13T14:44:26;97681.19;;;25.70
24201;BMP280;2801;50.972;7.856;2023-07-13T14:46:58;97683.75;;;26.07
24201;BMP280;2801;50.972;7.856;2023-07-13T14:49:30;97678.06;;;26.17
24201;BMP280;2801;50.972;7.856;2023-07-13T14:52:10;97686.91;;;26.05
24201;BMP280;2801;50.972;7.856;2023-07-13T14:54:38;97676.34;;;26.04
24201;BMP280;2801;50.972;7.856;2023-07-13T14:57:12;97684.78;;;25.90
24201;BMP280;2801;50.972;7.856;2023-07-13T14:59:40;97674.94;;;25.92
24201;BMP280;2801;50.972;7.856;2023-07-13T15:02:33;97675.19;;;26.01
24201;BMP280;2801;50.972;7.856;2023-07-13T15:05:01;97674.56;;;25.90
24201;BMP280;2801;50.972;7.856;2023-07-13T15:07:30;97680.09;;;26.13
24201;BMP280;2801;50.972;7.856;2023-07-13T15:09:57;97673.97;;;26.25
24201;BMP280;2801;50.972;7.856;2023-07-13T15:12:24;97668.91;;;26.24
24201;BMP280;2801;50.972;7.856;2023-07-13T15:14:51;97675.25;;;26.40
24201;BMP280;2801;50.972;7.856;2023-07-13T15:17:40;97665.19;;;26.34
24201;BMP280;2801;50.972;7.856;2023-07-13T15:20:27;97680.22;;;26.49
24201;BMP280;2801;50.972;7.856;2023-07-13T15:22:59;97662.28;;;26.64
24201;BMP280;2801;50.972;7.856;2023-07-13T15:25:29;97654.44;;;26.62
24201;BMP280;2801;50.972;7.856;2023-07-13T15:27:57;97667.50;;;26.78
24201;BMP280;2801;50.972;7.856;2023-07-13T15:30:34;97661.56;;;26.60